Time;durP1;ratioP1;P1;durP2;ratioP2;P2;SDS_P1;SDS_P2;PMS_P1;PMS_P2;Temp;Humidity;BMP_temperature;BMP_pressure;BME280_temperature;BME280_humidity;BME280_pressure;Samples;Min_cycle;Max_cycle;Signal;HPM_P1;HPM_P2
2022/01/07 00:00:47;;;;;;;9.37;5.30;;;;;;;-3.20;100.00;99235.91;4823461;29;20385;-61
2022/01/07 00:03:14;;;;;;;11.40;5.00;;;;;;;-3.24;100.00;99234.47;4823543;29;20034;-61
2022/01/07 00:05:40;;;;;;;11.45;6.00;;;;;;;-3.31;100.00;99234.03;4823533;29;20038;-60
2022/01/07 00:08:06;;;;;;;10.70;5.65;;;;;;;-3.36;100.00;99241.38;4822286;29;20031;-61
2022/01/07 00:10:32;;;;;;;10.52;5.78;;;;;;;-3.44;100.00;99241.06;4823361;29;20042;-61
2022/01/07 00:12:58;;;;;;;10.73;5.57;;;;;;;-3.43;100.00;99245.34;4823203;29;20023;-60
2022/01/07 00:15:24;;;;;;;9.70;5.20;;;;;;;-3.45;100.00;99239.38;4823126;29;20041;-61
2022/01/07 00:17:50;;;;;;;12.95;6.18;;;;;;;-3.46;100.00;99234.28;4823405;29;20037;-60
2022/01/07 00:20:17;;;;;;;12.47;5.60;;;;;;;-3.47;100.00;99230.00;4823287;29;20030;-60
2022/01/07 00:22:43;;;;;;;12.38;5.90;;;;;;;-3.46;100.00;99239.50;4822175;29;20053;-61
2022/01/07 00:25:11;;;;;;;10.55;5.50;;;;;;;-3.26;100.00;99244.19;4823234;29;20030;-61
2022/01/07 00:27:37;;;;;;;11.48;5.80;;;;;;;-2.95;100.00;99248.91;4823343;29;20110;-61
2022/01/07 00:30:04;;;;;;;11.23;5.53;;;;;;;-2.80;100.00;99254.00;4823250;29;20062;-61
2022/01/07 00:32:30;;;;;;;9.40;4.82;;;;;;;-2.70;100.00;99241.94;4823231;29;20135;-61
2022/01/07 00:34:55;;;;;;;10.53;4.77;;;;;;;-2.67;100.00;99247.78;4823277;29;20092;-60
2022/01/07 00:37:21;;;;;;;11.20;5.00;;;;;;;-2.71;100.00;99246.34;4822095;29;20038;-62
2022/01/07 00:39:48;;;;;;;10.13;5.50;;;;;;;-2.62;100.00;99235.19;4821876;29;20034;-60
2022/01/07 00:42:14;;;;;;;11.52;5.40;;;;;;;-2.52;100.00;99242.38;4823111;29;20046;-61
2022/01/07 00:44:40;;;;;;;9.77;5.47;;;;;;;-2.46;100.00;99239.34;4823177;29;20036;-61
2022/01/07 00:47:06;;;;;;;11.80;5.20;;;;;;;-2.57;100.00;99237.50;4822926;29;20032;-60
2022/01/07 00:49:32;;;;;;;9.95;5.47;;;;;;;-2.49;100.00;99231.69;4822798;29;20405;-61
2022/01/07 00:51:59;;;;;;;9.30;5.05;;;;;;;-2.39;100.00;99230.06;4822837;29;20035;-61
2022/01/07 00:54:25;;;;;;;10.27;5.25;;;;;;;-2.31;100.00;99236.41;4822828;29;20037;-61
2022/01/07 00:56:51;;;;;;;11.90;5.63;;;;;;;-2.31;100.00;99239.03;4822750;29;20034;-61
2022/01/07 00:59:17;;;;;;;13.30;6.07;;;;;;;-2.27;100.00;99234.41;4821381;29;20114;-61
2022/01/07 01:01:42;;;;;;;10.87;5.57;;;;;;;-2.34;100.00;99228.81;4822781;29;20054;-60
2022/01/07 01:04:08;;;;;;;9.43;5.40;;;;;;;-2.24;100.00;99229.78;4822688;29;20030;-60
2022/01/07 01:06:34;;;;;;;10.40;4.97;;;;;;;-2.29;100.00;99231.06;4822679;29;20109;-61
2022/01/07 01:08:59;;;;;;;9.75;5.35;;;;;;;-2.19;100.00;99221.56;4822582;29;20039;-61
2022/01/07 01:11:25;;;;;;;9.63;4.30;;;;;;;-2.22;100.00;99214.81;4822592;29;20041;-60
2022/01/07 01:13:51;;;;;;;9.20;4.40;;;;;;;-2.22;100.00;99216.59;4822599;29;20503;-60
2022/01/07 01:16:16;;;;;;;9.27;4.53;;;;;;;-2.28;100.00;99210.00;4822733;29;20037;-61
2022/01/07 01:18:42;;;;;;;9.63;4.50;;;;;;;-2.31;100.00;99206.81;4824423;29;20030;-61
2022/01/07 01:21:07;;;;;;;7.47;4.10;;;;;;;-2.21;100.00;99210.41;4828278;29;20037;-60
2022/01/07 01:23:33;;;;;;;10.13;4.33;;;;;;;-2.30;100.00;99209.28;4828488;29;20036;-60
2022/01/07 01:25:59;;;;;;;9.13;4.33;;;;;;;-2.36;100.00;99207.13;4842322;29;20032;-60
2022/01/07 01:28:24;;;;;;;9.43;4.50;;;;;;;-2.43;100.00;99205.09;4828188;29;20069;-61
2022/01/07 01:30:50;;;;;;;8.80;4.47;;;;;;;-2.49;100.00;99198.53;4828268;29;20031;-61
2022/01/07 01:33:17;;;;;;;9.87;4.90;;;;;;;-2.55;100.00;99193.75;4827008;29;20040;-60
2022/01/07 01:35:42;;;;;;;8.55;4.40;;;;;;;-2.56;100.00;99194.69;4842324;29;20041;-61
2022/01/07 01:38:08;;;;;;;8.97;4.37;;;;;;;-2.61;100.00;99200.25;4828271;29;20477;-60
2022/01/07 01:40:34;;;;;;;9.97;4.63;;;;;;;-2.71;100.00;99188.78;4828237;29;20038;-61
2022/01/07 01:43:01;;;;;;;10.00;4.50;;;;;;;-2.89;100.00;99190.13;4828476;29;20028;-61
2022/01/07 01:45:27;;;;;;;9.43;4.95;;;;;;;-2.94;100.00;99187.00;4828313;29;20038;-60
2022/01/07 01:47:53;;;;;;;9.20;4.35;;;;;;;-3.01;100.00;99183.19;4828093;29;20570;-60
2022/01/07 01:50:19;;;;;;;7.82;4.57;;;;;;;-3.15;100.00;99183.31;4826957;29;20524;-60
2022/01/07 01:52:50;;;;;;;10.32;5.20;;;;;;;-3.18;100.00;99183.53;4828318;29;20087;-60
2022/01/07 01:55:17;;;;;;;10.75;5.40;;;;;;;-3.17;100.00;99193.03;4828395;29;20042;-60
2022/01/07 01:57:44;;;;;;;10.25;5.68;;;;;;;-3.15;100.00;99199.00;4828326;29;20038;-60
2022/01/07 02:00:10;;;;;;;10.27;5.68;;;;;;;-2.88;100.00;99207.47;4828151;29;20539;-61
2022/01/07 02:02:36;;;;;;;9.40;5.20;;;;;;;-2.69;100.00;99212.22;4828307;29;20034;-60
2022/01/07 02:05:03;;;;;;;10.32;5.65;;;;;;;-2.54;100.00;99199.81;4828223;29;20037;-61
2022/01/07 02:07:29;;;;;;;8.70;4.57;;;;;;;-2.52;100.00;99203.13;4828124;29;20058;-61
2022/01/07 02:09:55;;;;;;;10.68;5.30;;;;;;;-2.45;100.00;99193.91;4828192;29;20034;-61
2022/01/07 02:12:21;;;;;;;14.85;6.72;;;;;;;-2.32;100.00;99202.53;4828021;29;20098;-61
2022/01/07 02:14:56;;;;;;;17.83;8.80;;;;;;;-2.15;100.00;99198.63;4828156;29;20026;-60
2022/01/07 02:17:23;;;;;;;15.35;7.20;;;;;;;-2.09;100.00;99196.41;4827976;29;20035;-60
2022/01/07 02:19:49;;;;;;;14.88;6.70;;;;;;;-2.06;100.00;99198.78;4828109;29;20034;-61
2022/01/07 02:22:17;;;;;;;13.20;5.97;;;;;;;-2.03;100.00;99197.72;4827981;29;20094;-60
2022/01/07 02:24:44;;;;;;;11.20;5.30;;;;;;;-1.97;100.00;99190.25;4828020;29;20392;-60
2022/01/07 02:27:12;;;;;;;10.00;5.53;;;;;;;-1.87;100.00;99195.63;4827788;29;20104;-61
2022/01/07 02:29:38;;;;;;;12.45;5.43;;;;;;;-1.81;100.00;99192.50;4826215;29;20082;-61
2022/01/07 02:32:05;;;;;;;11.32;5.38;;;;;;;-1.82;100.00;99194.28;4824433;29;20461;-60
2022/01/07 02:34:30;;;;;;;11.30;5.10;;;;;;;-1.93;100.00;99188.19;4824931;29;20034;-61
2022/01/07 02:36:56;;;;;;;9.57;4.90;;;;;;;-1.88;100.00;99197.41;4824873;29;20466;-61
2022/01/07 02:39:22;;;;;;;11.30;4.67;;;;;;;-1.77;100.00;99187.88;4824722;29;20030;-61
2022/01/07 02:41:47;;;;;;;10.00;5.10;;;;;;;-1.76;100.00;99182.53;4823709;29;20388;-60
2022/01/07 02:44:13;;;;;;;11.03;5.37;;;;;;;-1.78;100.00;99173.94;4824662;29;20030;-60
2022/01/07 02:46:38;;;;;;;9.93;5.03;;;;;;;-1.82;100.00;99173.34;4823434;29;20799;-60
2022/01/07 02:49:12;;;;;;;12.40;5.87;;;;;;;-1.74;100.00;99179.78;4824377;29;20154;-61
2022/01/07 02:51:37;;;;;;;11.38;5.43;;;;;;;-1.71;100.00;99166.44;4824943;29;20577;-60
2022/01/07 02:54:03;;;;;;;12.60;5.67;;;;;;;-1.73;100.00;99176.22;4823420;29;20038;-61
2022/01/07 02:56:29;;;;;;;11.47;5.47;;;;;;;-1.70;100.00;99174.19;4824532;29;20779;-60
2022/01/07 02:58:55;;;;;;;12.73;6.27;;;;;;;-1.73;100.00;99171.00;4824404;29;20082;-60
2022/01/07 03:01:20;;;;;;;12.50;5.70;;;;;;;-1.75;100.00;99168.47;4838543;29;20077;-59
2022/01/07 03:03:46;;;;;;;14.43;5.97;;;;;;;-1.66;100.00;99172.16;4824350;29;20038;-60
2022/01/07 03:06:11;;;;;;;13.57;6.53;;;;;;;-1.58;100.00;99175.03;4824311;29;20034;-61
2022/01/07 03:08:37;;;;;;;13.80;7.07;;;;;;;-1.61;100.00;99162.97;4823004;29;20511;-60
2022/01/07 03:11:02;;;;;;;16.73;8.47;;;;;;;-1.63;100.00;99145.75;4824262;29;20066;-61
2022/01/07 03:13:29;;;;;;;17.93;8.27;;;;;;;-1.53;100.00;99146.69;4824203;29;20037;-60
2022/01/07 03:15:54;;;;;;;18.40;8.77;;;;;;;-1.54;100.00;99140.59;4824321;29;20112;-60
2022/01/07 03:18:20;;;;;;;18.90;8.40;;;;;;;-1.55;100.00;99136.31;4824134;29;20082;-60
2022/01/07 03:20:45;;;;;;;22.43;9.93;;;;;;;-1.44;100.00;99137.25;4824189;29;20061;-60
2022/01/07 03:23:13;;;;;;;23.70;9.63;;;;;;;-1.41;100.00;99129.16;4824093;29;20038;-61
2022/01/07 03:25:44;;;;;;;23.67;9.88;;;;;;;-1.38;100.00;99132.34;4823969;29;20030;-61
2022/01/07 03:28:10;;;;;;;24.23;10.57;;;;;;;-1.33;100.00;99132.00;4823829;29;20519;-61
2022/01/07 03:30:36;;;;;;;24.20;10.10;;;;;;;-1.35;100.00;99129.50;4824110;29;20038;-61
2022/01/07 03:33:03;;;;;;;26.48;10.80;;;;;;;-1.31;100.00;99124.84;4824070;29;20034;-61
2022/01/07 03:35:28;;;;;;;21.63;10.93;;;;;;;-1.34;100.00;99118.06;4824107;29;20117;-60
2022/01/07 03:37:54;;;;;;;26.77;11.47;;;;;;;-1.26;100.00;99123.53;4824140;29;20142;-61
2022/01/07 03:40:20;;;;;;;24.90;11.33;;;;;;;-1.26;100.00;99122.69;4823862;29;20042;-60
2022/01/07 03:42:48;;;;;;;27.88;10.77;;;;;;;-1.26;100.00;99109.56;4822662;29;20091;-60
2022/01/07 03:45:14;;;;;;;28.38;11.30;;;;;;;-1.29;100.00;99107.22;4823915;29;20034;-61
2022/01/07 03:47:40;;;;;;;30.08;11.90;;;;;;;-1.25;100.00;99106.84;4823907;29;20680;-61
2022/01/07 03:50:08;;;;;;;32.03;12.70;;;;;;;-1.23;100.00;99112.78;4823851;29;20043;-60
2022/01/07 03:52:35;;;;;;;29.80;13.15;;;;;;;-1.20;100.00;99119.59;4823829;29;20030;-61
2022/01/07 03:55:01;;;;;;;29.08;11.77;;;;;;;-1.16;100.00;99111.38;4823731;29;20042;-60
2022/01/07 03:57:27;;;;;;;30.55;11.70;;;;;;;-1.18;100.00;99115.91;4823499;29;20038;-61
2022/01/07 03:59:52;;;;;;;33.30;13.10;;;;;;;-1.20;100.00;99109.94;4823539;29;20086;-60
2022/01/07 04:02:18;;;;;;;32.37;13.00;;;;;;;-1.20;100.00;99106.47;4823611;29;20727;-60
2022/01/07 04:04:44;;;;;;;31.80;12.53;;;;;;;-1.08;100.00;99102.03;4823597;29;20034;-60
2022/01/07 04:07:10;;;;;;;29.05;12.13;;;;;;;-1.04;100.00;99101.69;4823444;29;20026;-61
2022/01/07 04:09:36;;;;;;;34.77;12.97;;;;;;;-1.08;100.00;99102.03;4823378;29;20038;-60
2022/01/07 04:12:01;;;;;;;29.70;11.60;;;;;;;-1.06;100.00;99095.72;4823430;29;20122;-61
2022/01/07 04:14:27;;;;;;;29.33;12.23;;;;;;;-1.01;100.00;99090.91;4823262;29;20041;-60
2022/01/07 04:16:53;;;;;;;30.07;12.77;;;;;;;-1.04;100.00;99085.13;4823323;29;20026;-61
2022/01/07 04:19:20;;;;;;;29.80;12.20;;;;;;;-1.07;100.00;99085.34;4823087;29;20053;-60
2022/01/07 04:21:47;;;;;;;32.05;12.13;;;;;;;-1.06;100.00;99080.00;4822022;29;20045;-60
2022/01/07 04:24:13;;;;;;;33.72;12.70;;;;;;;-1.11;100.00;99072.47;4823108;29;20030;-60
2022/01/07 04:26:39;;;;;;;32.93;12.43;;;;;;;-1.16;100.00;99076.44;4823209;29;20503;-60
2022/01/07 04:29:04;;;;;;;31.87;12.97;;;;;;;-1.17;100.00;99074.78;4822991;29;20046;-60
2022/01/07 04:31:30;;;;;;;33.20;13.47;;;;;;;-1.24;100.00;99081.47;4823102;29;20068;-61
2022/01/07 04:33:55;;;;;;;35.60;12.73;;;;;;;-1.36;100.00;99079.81;4823194;29;20041;-60
2022/01/07 04:36:21;;;;;;;33.90;12.93;;;;;;;-1.43;100.00;99079.50;4823048;29;20038;-61
2022/01/07 04:38:46;;;;;;;31.60;12.57;;;;;;;-1.48;100.00;99084.25;4822984;29;20034;-60
2022/01/07 04:41:13;;;;;;;35.97;13.20;;;;;;;-1.37;100.00;99073.75;4823008;29;20053;-60
2022/01/07 04:43:39;;;;;;;33.97;14.18;;;;;;;-1.33;100.00;99080.41;4823295;29;20465;-60
2022/01/07 04:46:04;;;;;;;31.33;12.70;;;;;;;-1.30;100.00;99087.19;4823032;29;20056;-61
2022/01/07 04:48:30;;;;;;;39.50;13.67;;;;;;;-1.36;100.00;99090.31;4822590;29;20341;-60
2022/01/07 04:50:56;;;;;;;30.02;12.48;;;;;;;-1.34;100.00;99099.72;4822923;29;20072;-60
2022/01/07 04:53:22;;;;;;;30.40;12.63;;;;;;;-1.24;100.00;99082.28;4822422;29;20065;-60
2022/01/07 04:55:47;;;;;;;29.03;12.27;;;;;;;-1.18;100.00;99080.97;4822892;29;20022;-60
2022/01/07 04:58:13;;;;;;;28.67;12.57;;;;;;;-1.19;100.00;99085.38;4821419;29;20438;-60
2022/01/07 05:00:41;;;;;;;29.58;13.10;;;;;;;-1.25;100.00;99071.91;4821538;29;20041;-61
2022/01/07 05:03:08;;;;;;;31.13;12.63;;;;;;;-1.24;100.00;99082.28;4822589;29;20117;-60
2022/01/07 05:05:34;;;;;;;33.15;13.15;;;;;;;-1.26;100.00;99083.38;4822635;29;20030;-60
2022/01/07 05:08:01;;;;;;;33.27;12.77;;;;;;;-1.15;100.00;99080.72;4822659;29;20461;-61
2022/01/07 05:10:27;;;;;;;29.95;11.40;;;;;;;-1.12;100.00;99076.06;4822462;29;20066;-61
2022/01/07 05:12:53;;;;;;;27.23;11.57;;;;;;;-1.07;100.00;99075.69;4822596;29;20089;-61
2022/01/07 05:15:22;;;;;;;28.90;10.75;;;;;;;-0.97;100.00;99070.53;4822583;29;20030;-61
2022/01/07 05:17:49;;;;;;;25.73;10.52;;;;;;;-0.95;100.00;99069.44;4822642;29;20094;-61
2022/01/07 05:20:16;;;;;;;28.13;10.75;;;;;;;-0.87;100.00;99079.31;4821421;29;20030;-61
2022/01/07 05:22:42;;;;;;;23.75;9.82;;;;;;;-0.83;100.00;99085.97;4822571;29;20050;-62
2022/01/07 05:25:10;;;;;;;30.13;11.20;;;;;;;-0.82;100.00;99085.03;4822623;29;20477;-60
2022/01/07 05:27:37;;;;;;;26.33;10.40;;;;;;;-0.83;100.00;99086.81;4822661;29;20121;-60
2022/01/07 05:30:08;;;;;;;29.17;10.60;;;;;;;-0.79;100.00;99077.72;4822478;29;20467;-61
2022/01/07 05:32:34;;;;;;;25.48;10.43;;;;;;;-0.74;100.00;99075.56;4822284;29;20041;-61
2022/01/07 05:34:59;;;;;;;26.97;10.87;;;;;;;-0.73;100.00;99079.00;4822492;29;20038;-61
2022/01/07 05:37:25;;;;;;;25.83;10.57;;;;;;;-0.78;100.00;99074.13;4822580;29;20034;-61
2022/01/07 05:39:51;;;;;;;26.63;10.83;;;;;;;-0.82;100.00;99064.88;4822277;29;20046;-60
2022/01/07 05:42:16;;;;;;;25.50;10.30;;;;;;;-0.83;100.00;99060.56;4822350;29;20118;-61
2022/01/07 05:44:42;;;;;;;22.20;10.33;;;;;;;-0.83;100.00;99073.69;4822357;29;20049;-60
2022/01/07 05:47:08;;;;;;;23.63;11.23;;;;;;;-0.87;100.00;99071.44;4822098;29;20040;-61
2022/01/07 05:49:33;;;;;;;25.30;10.03;;;;;;;-0.74;100.00;99078.19;4822100;29;20095;-60
2022/01/07 05:51:59;;;;;;;24.10;9.30;;;;;;;-0.75;100.00;99073.88;4822253;29;20560;-60
2022/01/07 05:54:24;;;;;;;23.23;9.77;;;;;;;-0.75;100.00;99071.25;4822068;29;20042;-60
2022/01/07 05:56:50;;;;;;;26.77;10.40;;;;;;;-0.79;100.00;99075.09;4822062;29;20095;-60
2022/01/07 05:59:15;;;;;;;23.13;10.03;;;;;;;-0.83;100.00;99071.06;4821992;29;20068;-61
2022/01/07 06:01:41;;;;;;;24.20;10.80;;;;;;;-0.69;100.00;99063.84;4822173;29;20042;-61
2022/01/07 06:04:06;;;;;;;25.00;10.60;;;;;;;-0.66;100.00;99060.94;4820851;29;20456;-61
2022/01/07 06:06:33;;;;;;;24.33;9.63;;;;;;;-0.75;100.00;99067.81;4824033;29;20038;-60
2022/01/07 06:08:59;;;;;;;23.85;9.68;;;;;;;-0.79;100.00;99061.97;4825248;29;20050;-60
2022/01/07 06:11:24;;;;;;;23.10;9.77;;;;;;;-0.78;100.00;99062.81;4825182;29;20544;-61
2022/01/07 06:13:50;;;;;;;23.67;10.13;;;;;;;-0.69;100.00;99069.91;4823981;29;20094;-60
2022/01/07 06:16:15;;;;;;;24.90;10.53;;;;;;;-0.69;100.00;99072.53;4825108;29;20391;-58
2022/01/07 06:18:54;;;;;;;28.87;10.13;;;;;;;-0.70;100.00;99064.81;4824871;29;20037;-59
2022/01/07 06:21:20;;;;;;;22.02;9.65;;;;;;;-0.68;100.00;99074.19;4824007;29;20034;-58
2022/01/07 06:23:46;;;;;;;22.13;9.57;;;;;;;-0.66;100.00;99074.06;4824945;29;20442;-58
2022/01/07 06:26:11;;;;;;;21.57;9.23;;;;;;;-0.71;100.00;99071.00;4824837;29;20087;-58
2022/01/07 06:28:37;;;;;;;19.50;9.73;;;;;;;-0.87;100.00;99072.28;4824758;29;20362;-58
2022/01/07 06:31:02;;;;;;;19.43;8.27;;;;;;;-0.83;100.00;99067.63;4824985;29;20098;-60
2022/01/07 06:33:28;;;;;;;18.77;8.33;;;;;;;-0.73;100.00;99076.38;4823676;29;20125;-61
2022/01/07 06:35:53;;;;;;;15.27;7.97;;;;;;;-0.78;100.00;99063.63;4824888;29;20105;-58
2022/01/07 06:38:19;;;;;;;18.57;8.10;;;;;;;-0.80;100.00;99064.72;4823572;29;20061;-59
2022/01/07 06:40:44;;;;;;;15.93;7.57;;;;;;;-0.76;100.00;99064.34;4824738;29;20026;-59
2022/01/07 06:43:10;;;;;;;17.90;8.10;;;;;;;-0.79;100.00;99067.22;4824867;29;20473;-61
2022/01/07 06:45:35;;;;;;;16.87;6.93;;;;;;;-0.73;100.00;99060.66;4824775;29;20034;-61
2022/01/07 06:48:01;;;;;;;17.70;8.23;;;;;;;-0.72;100.00;99064.94;4824521;29;20138;-61
2022/01/07 06:50:26;;;;;;;17.93;8.33;;;;;;;-0.71;100.00;99058.72;4824585;29;20425;-59
2022/01/07 06:52:52;;;;;;;16.73;7.97;;;;;;;-0.79;100.00;99050.63;4823453;29;20572;-59
2022/01/07 06:55:18;;;;;;;15.83;7.50;;;;;;;-0.87;100.00;99056.53;4824263;29;20087;-61
2022/01/07 06:57:43;;;;;;;17.25;8.32;;;;;;;-0.93;100.00;99050.97;4824771;29;20035;-60
2022/01/07 07:00:09;;;;;;;16.17;7.40;;;;;;;-0.86;100.00;99055.56;4824624;29;20034;-61
2022/01/07 07:02:35;;;;;;;17.08;7.80;;;;;;;-0.85;100.00;99066.91;4824604;29;20064;-60
2022/01/07 07:05:01;;;;;;;16.47;7.30;;;;;;;-0.81;100.00;99060.44;4824110;29;20042;-60
2022/01/07 07:07:26;;;;;;;15.80;7.73;;;;;;;-0.85;100.00;99059.03;4824246;29;20133;-60
2022/01/07 07:09:52;;;;;;;18.27;8.33;;;;;;;-0.74;100.00;99056.34;4822137;29;20121;-63
2022/01/07 07:12:17;;;;;;;17.13;7.87;;;;;;;-0.81;100.00;99060.44;4803458;29;20031;-62
2022/01/07 07:14:43;;;;;;;19.87;8.80;;;;;;;-0.78;100.00;99049.69;4805060;29;20479;-62
2022/01/07 07:17:10;;;;;;;17.00;8.43;;;;;;;-0.81;100.00;99045.53;4805849;29;20053;-62
2022/01/07 07:19:36;;;;;;;17.73;8.40;;;;;;;-0.76;100.00;99045.97;4805964;29;20118;-61
2022/01/07 07:22:02;;;;;;;16.63;8.10;;;;;;;-0.84;100.00;99044.97;4805877;29;20552;-63
2022/01/07 07:24:27;;;;;;;18.53;8.07;;;;;;;-0.82;100.00;99048.28;4805957;29;20529;-63
2022/01/07 07:26:53;;;;;;;17.40;8.30;;;;;;;-0.80;100.00;99044.56;4818716;29;20041;-62
2022/01/07 07:29:18;;;;;;;19.10;8.27;;;;;;;-0.65;100.00;99046.88;4823823;29;20393;-63
2022/01/07 07:31:48;;;;;;;18.70;9.00;;;;;;;-0.67;100.00;99052.25;4823933;29;20115;-61
2022/01/07 07:36:59;;;;;;;18.00;8.63;;;;;;;-0.58;100.00;99048.06;4805815;29;20814;-61
2022/01/07 07:39:25;;;;;;;19.20;8.32;;;;;;;-0.56;100.00;99039.06;4805600;29;20450;-61
2022/01/07 07:41:50;;;;;;;15.70;8.10;;;;;;;-0.52;100.00;99042.28;4805645;29;20092;-62
2022/01/07 07:44:16;;;;;;;18.20;8.33;;;;;;;-0.44;100.00;99045.06;4805044;29;20031;-62
2022/01/07 07:46:41;;;;;;;14.73;7.30;;;;;;;-0.46;100.00;99039.13;4805499;29;20031;-62
2022/01/07 07:49:09;;;;;;;15.50;7.47;;;;;;;-0.36;100.00;99042.66;4805282;29;20105;-59
2022/01/07 07:51:35;;;;;;;16.25;7.63;;;;;;;-0.36;100.00;99037.41;4805435;29;20031;-59
2022/01/07 07:54:01;;;;;;;41.08;16.52;;;;;;;-0.47;100.00;99035.69;4805264;29;20039;-58
2022/01/07 07:56:27;;;;;;;49.57;17.43;;;;;;;-0.57;100.00;99039.19;4805068;29;20109;-60
2022/01/07 07:58:53;;;;;;;41.13;18.57;;;;;;;-0.52;100.00;99037.84;4805487;29;20441;-60
2022/01/07 08:01:19;;;;;;;46.83;18.23;;;;;;;-0.65;100.00;99044.25;4804970;29;20037;-62
2022/01/07 08:03:45;;;;;;;44.80;18.27;;;;;;;-0.70;100.00;99041.19;4805168;29;20038;-61
2022/01/07 08:06:12;;;;;;;45.25;17.95;;;;;;;-0.53;100.00;99036.19;4805159;29;20511;-61
2022/01/07 08:08:37;;;;;;;49.20;18.58;;;;;;;-0.68;100.00;99037.47;4804900;29;20142;-61
2022/01/07 08:11:06;;;;;;;47.23;19.43;;;;;;;-0.52;100.00;99029.97;4803969;29;20113;-61
2022/01/07 08:15:58;;;;;;;49.88;19.70;;;;;;;-0.45;100.00;99033.75;4804984;29;20478;-61
2022/01/07 08:16:19;;;;;;;48.33;20.83;;;;;;;-0.41;100.00;99018.56;4804623;29;20439;-62
2022/01/07 08:18:48;;;;;;;57.08;25.27;;;;;;;-0.32;100.00;99023.03;4804079;29;20501;-60
2022/01/07 08:21:14;;;;;;;50.33;20.75;;;;;;;-0.22;100.00;99026.53;4805040;29;20030;-59
2022/01/07 08:23:41;;;;;;;47.97;20.97;;;;;;;-0.22;100.00;99029.16;4803749;29;20725;-61
2022/01/07 08:26:09;;;;;;;48.70;20.95;;;;;;;-0.10;100.00;99029.91;4804962;29;20100;-59
2022/01/07 08:28:43;;;;;;;50.50;20.77;;;;;;;-0.17;100.00;99027.00;4803921;29;20113;-59
2022/01/07 08:36:26;;;;;;;58.22;22.38;;;;;;;-0.34;100.00;99030.22;4804692;29;20095;-60
2022/01/07 08:38:52;;;;;;;63.20;24.20;;;;;;;-0.34;100.00;99034.63;4804592;29;20042;-59
2022/01/07 08:41:20;;;;;;;56.38;23.35;;;;;;;-0.25;100.00;99021.56;4804606;29;20351;-60
2022/01/07 08:43:46;;;;;;;57.58;24.20;;;;;;;-0.08;100.00;99031.44;4804623;29;20474;-60
2022/01/07 08:46:12;;;;;;;61.53;25.23;;;;;;;-0.10;100.00;99027.28;4804060;29;20042;-60
2022/01/07 08:48:38;;;;;;;51.87;21.90;;;;;;;-0.09;100.00;99023.69;4804417;29;20054;-59
2022/01/07 08:51:05;;;;;;;53.17;25.25;;;;;;;-0.15;100.00;99021.59;4802687;29;20039;-60
2022/01/07 08:53:30;;;;;;;45.58;21.02;;;;;;;-0.41;100.00;99027.28;4803416;29;20038;-61
2022/01/07 08:55:56;;;;;;;47.97;21.07;;;;;;;-0.28;100.00;99016.56;4804407;29;20457;-60
2022/01/07 08:58:22;;;;;;;47.33;20.57;;;;;;;-0.19;100.00;99014.94;4804503;29;20038;-60
2022/01/07 09:00:49;;;;;;;51.13;21.38;;;;;;;-0.05;100.00;99017.22;4804288;29;20062;-61
2022/01/07 09:03:15;;;;;;;59.22;22.88;;;;;;;0.00;100.00;99023.72;4802933;29;20034;-60
2022/01/07 09:05:41;;;;;;;51.70;22.67;;;;;;;0.01;100.00;99027.19;4804327;29;20045;-59
2022/01/07 09:08:09;;;;;;;56.30;22.27;;;;;;;0.01;100.00;99027.19;4804390;29;20501;-60
2022/01/07 09:10:35;;;;;;;49.67;22.25;;;;;;;-0.07;100.00;99024.41;4802933;29;20035;-61
2022/01/07 09:13:00;;;;;;;54.33;22.50;;;;;;;-0.18;100.00;99021.88;4803221;29;20228;-60
2022/01/07 09:15:26;;;;;;;56.60;23.30;;;;;;;-0.05;100.00;99023.31;4804538;29;20043;-60
2022/01/07 09:17:52;;;;;;;57.73;23.60;;;;;;;0.04;100.00;99023.47;4803693;29;20039;-60
2022/01/07 09:20:18;;;;;;;59.40;24.47;;;;;;;0.08;100.00;99025.72;4804263;29;20035;-60
2022/01/07 09:22:43;;;;;;;62.50;26.07;;;;;;;-0.28;100.00;99026.25;4804397;29;20096;-60
2022/01/07 09:25:09;;;;;;;60.70;26.57;;;;;;;-0.24;100.00;99032.91;4804307;29;20084;-59
2022/01/07 09:27:36;;;;;;;64.37;26.80;;;;;;;-0.19;100.00;99028.91;4821797;29;20042;-60
2022/01/07 09:30:03;;;;;;;69.07;28.48;;;;;;;0.09;100.00;99027.38;4809810;29;20370;-60
2022/01/07 09:32:28;;;;;;;74.40;30.95;;;;;;;0.12;100.00;99029.72;4804277;29;20146;-60
2022/01/07 09:34:54;;;;;;;70.57;28.90;;;;;;;0.14;100.00;99012.03;4804151;29;20129;-60
2022/01/07 09:37:19;;;;;;;72.63;30.27;;;;;;;0.39;100.00;99009.88;4807565;29;20110;-62
2022/01/07 09:39:45;;;;;;;72.37;30.23;;;;;;;0.81;100.00;99013.13;4822007;29;20060;-61
2022/01/07 09:42:10;;;;;;;72.40;29.37;;;;;;;0.99;100.00;99014.94;4825859;29;20104;-61
2022/01/07 09:44:44;;;;;;;63.03;27.43;;;;;;;1.06;100.00;99009.94;4825842;29;20034;-61
2022/01/07 09:47:11;;;;;;;69.32;30.27;;;;;;;1.05;100.00;99013.53;4825520;29;20507;-61
2022/01/07 09:49:37;;;;;;;62.70;28.13;;;;;;;2.30;100.00;99004.44;4812970;29;20030;-60
2022/01/07 09:52:04;;;;;;;60.10;25.40;;;;;;;2.98;100.00;98997.72;4807608;29;20274;-61
2022/01/07 09:54:30;;;;;;;55.97;26.83;;;;;;;2.40;100.00;99002.59;4806697;29;20279;-60
2022/01/07 09:56:56;;;;;;;62.93;28.33;;;;;;;2.72;100.00;98995.00;4807596;29;21068;-60
2022/01/07 09:59:22;;;;;;;62.87;27.73;;;;;;;2.70;100.00;98994.31;4807434;29;20263;-60
2022/01/07 10:01:54;;;;;;;61.53;26.97;;;;;;;2.48;100.00;98997.38;4807315;29;20026;-60
2022/01/07 10:04:31;;;;;;;61.53;26.23;;;;;;;1.35;100.00;98997.59;4807402;29;20337;-60
2022/01/07 10:07:26;;;;;;;67.77;27.67;;;;;;;1.09;100.00;98993.88;4806025;29;20283;-60
2022/01/07 10:09:59;;;;;;;63.53;27.80;;;;;;;0.95;100.00;98987.22;4806704;29;20373;-60
2022/01/07 10:12:25;;;;;;;62.50;27.17;;;;;;;1.05;100.00;98987.22;4807110;29;20675;-61
2022/01/07 10:15:14;;;;;;;56.20;25.43;;;;;;;1.02;100.00;98984.88;4807163;29;20077;-60
2022/01/07 10:17:40;;;;;;;61.10;25.40;;;;;;;1.28;100.00;98975.41;4807110;29;20266;-60
2022/01/07 10:20:07;;;;;;;53.50;23.93;;;;;;;1.03;100.00;98978.66;4805588;29;20283;-60
2022/01/07 10:23:15;;;;;;;58.73;24.67;;;;;;;0.97;100.00;98979.19;4806426;29;20630;-61
2022/01/07 10:25:43;;;;;;;60.23;26.17;;;;;;;0.86;100.00;98976.72;4785777;30;20279;-60
2022/01/07 10:28:15;;;;;;;60.37;25.57;;;;;;;0.59;100.00;98967.69;4786150;30;20283;-60
2022/01/07 10:30:50;;;;;;;61.30;26.77;;;;;;;0.42;100.00;98972.81;4786364;30;20758;-59
2022/01/07 10:33:17;;;;;;;57.67;26.42;;;;;;;0.33;100.00;98975.31;4786481;30;20362;-60
2022/01/07 10:35:43;;;;;;;61.30;27.85;;;;;;;0.38;100.00;98974.03;4786388;30;20619;-60
2022/01/07 10:38:19;;;;;;;64.43;26.30;;;;;;;0.41;100.00;98974.63;4786371;30;20060;-60
2022/01/07 10:40:47;;;;;;;55.80;23.15;;;;;;;0.29;100.00;98967.81;4785991;30;20595;-59
2022/01/07 10:43:21;;;;;;;57.10;24.77;;;;;;;0.29;100.00;98971.28;4786385;30;20108;-60
2022/01/07 10:45:51;;;;;;;57.67;24.70;;;;;;;0.26;100.00;98971.53;4786059;30;20108;-61
2022/01/07 10:48:18;;;;;;;59.00;24.10;;;;;;;0.17;100.00;98968.91;4785792;30;20066;-61
2022/01/07 10:50:48;;;;;;;58.60;23.73;;;;;;;0.22;100.00;98962.28;4770920;29;20049;-60
2022/01/07 10:53:24;;;;;;;56.75;24.25;;;;;;;0.06;100.00;98961.13;4767846;30;20406;-59
2022/01/07 10:56:01;;;;;;;56.22;23.00;;;;;;;-0.11;100.00;98952.91;4753224;30;20039;-59
2022/01/07 10:58:27;;;;;;;58.03;23.48;;;;;;;-0.15;100.00;98951.53;4769849;29;20420;-60
2022/01/07 11:00:53;;;;;;;63.03;25.60;;;;;;;-0.18;100.00;98959.66;4806221;29;20034;-59
2022/01/07 11:03:20;;;;;;;59.27;24.87;;;;;;;-0.06;100.00;98953.34;4805148;29;20267;-60
2022/01/07 11:05:45;;;;;;;65.40;26.38;;;;;;;0.09;100.00;98958.25;4806156;29;20036;-59
2022/01/07 11:08:15;;;;;;;65.63;26.53;;;;;;;0.07;100.00;98947.84;4806150;29;20031;-59
2022/01/07 11:10:42;;;;;;;59.38;23.80;;;;;;;0.08;100.00;98948.69;4804803;29;20068;-60
2022/01/07 11:13:10;;;;;;;59.28;24.67;;;;;;;0.03;100.00;98948.25;4806314;29;20058;-59
2022/01/07 11:15:37;;;;;;;56.22;23.83;;;;;;;0.06;100.00;98948.00;4806091;29;20030;-60
2022/01/07 11:18:02;;;;;;;57.70;23.35;;;;;;;0.10;100.00;98944.97;4806172;29;20044;-61
2022/01/07 11:20:28;;;;;;;52.67;22.20;;;;;;;0.15;100.00;98947.16;4805609;29;20034;-59